<?xml version="1.0" encoding="UTF-8" standalone="no" ?>
<gpx xmlns="http://www.topografix.com/GPX/1/1" xmlns:xsi="http://www.w3.org/2001/XMLSchema-instance" xsi:schemaLocation="http://www.topografix.com/GPX/1/1 http://www.topografix.com/GPX/1/1/gpx.xsd" version="1.1" creator="VisuGPX - https://www.visugpx.com">
  <metadata>
    <name>la petite camargue</name>
    <desc><![CDATA[animateur Babette pour Grans randonnées]]></desc>
  </metadata>
  <trk>
    <name><![CDATA[la petite camargue]]></name>
    <trkseg>
      <trkpt lat="43.5421" lon="5.04136">
        <ele>13.5</ele>
        <time>2021-03-08T12:50:42Z</time>
      </trkpt>
      <trkpt lat="43.54189" lon="5.04132">
        <ele>13.7</ele>
        <time>2021-03-08T12:52:20Z</time>
      </trkpt>
      <trkpt lat="43.54169" lon="5.0412">
        <ele>14</ele>
        <time>2021-03-08T12:52:43Z</time>
      </trkpt>
      <trkpt lat="43.54147" lon="5.04115">
        <ele>14.1</ele>
        <time>2021-03-08T12:53:03Z</time>
      </trkpt>
      <trkpt lat="43.54125" lon="5.04114">
        <ele>14.3</ele>
        <time>2021-03-08T12:53:23Z</time>
      </trkpt>
      <trkpt lat="43.54103" lon="5.04117">
        <ele>14.5</ele>
        <time>2021-03-08T12:53:43Z</time>
      </trkpt>
      <trkpt lat="43.54082" lon="5.0412">
        <ele>14.6</ele>
        <time>2021-03-08T12:54:02Z</time>
      </trkpt>
      <trkpt lat="43.5406" lon="5.04123">
        <ele>15</ele>
        <time>2021-03-08T12:54:22Z</time>
      </trkpt>
      <trkpt lat="43.54038" lon="5.04127">
        <ele>15.3</ele>
        <time>2021-03-08T12:54:42Z</time>
      </trkpt>
      <trkpt lat="43.54016" lon="5.04127">
        <ele>15.7</ele>
        <time>2021-03-08T12:55:02Z</time>
      </trkpt>
      <trkpt lat="43.53993" lon="5.04131">
        <ele>16</ele>
        <time>2021-03-08T12:55:24Z</time>
      </trkpt>
      <trkpt lat="43.53972" lon="5.04134">
        <ele>16.5</ele>
        <time>2021-03-08T12:55:41Z</time>
      </trkpt>
      <trkpt lat="43.5395" lon="5.0414">
        <ele>17.1</ele>
        <time>2021-03-08T12:56:00Z</time>
      </trkpt>
      <trkpt lat="43.53928" lon="5.04142">
        <ele>17.7</ele>
        <time>2021-03-08T12:56:20Z</time>
      </trkpt>
      <trkpt lat="43.53907" lon="5.04132">
        <ele>18.2</ele>
        <time>2021-03-08T12:56:39Z</time>
      </trkpt>
      <trkpt lat="43.53886" lon="5.0412">
        <ele>18.7</ele>
        <time>2021-03-08T12:56:56Z</time>
      </trkpt>
      <trkpt lat="43.53872" lon="5.04097">
        <ele>19.1</ele>
        <time>2021-03-08T12:57:14Z</time>
      </trkpt>
      <trkpt lat="43.5386" lon="5.04071">
        <ele>19.7</ele>
        <time>2021-03-08T12:57:32Z</time>
      </trkpt>
      <trkpt lat="43.53848" lon="5.04047">
        <ele>20.6</ele>
        <time>2021-03-08T12:57:50Z</time>
      </trkpt>
      <trkpt lat="43.53836" lon="5.04022">
        <ele>21.4</ele>
        <time>2021-03-08T12:58:08Z</time>
      </trkpt>
      <trkpt lat="43.53823" lon="5.03996">
        <ele>22.4</ele>
        <time>2021-03-08T12:58:26Z</time>
      </trkpt>
      <trkpt lat="43.53812" lon="5.0397">
        <ele>22.8</ele>
        <time>2021-03-08T12:58:44Z</time>
      </trkpt>
      <trkpt lat="43.53803" lon="5.03943">
        <ele>22.8</ele>
        <time>2021-03-08T12:59:03Z</time>
      </trkpt>
      <trkpt lat="43.53793" lon="5.03914">
        <ele>22.5</ele>
        <time>2021-03-08T12:59:23Z</time>
      </trkpt>
      <trkpt lat="43.53781" lon="5.0389">
        <ele>21.7</ele>
        <time>2021-03-08T12:59:43Z</time>
      </trkpt>
      <trkpt lat="43.53769" lon="5.03864">
        <ele>21</ele>
        <time>2021-03-08T13:00:02Z</time>
      </trkpt>
      <trkpt lat="43.53758" lon="5.03838">
        <ele>20.2</ele>
        <time>2021-03-08T13:00:20Z</time>
      </trkpt>
      <trkpt lat="43.53748" lon="5.03811">
        <ele>18.3</ele>
        <time>2021-03-08T13:00:38Z</time>
      </trkpt>
      <trkpt lat="43.53739" lon="5.03783">
        <ele>15.9</ele>
        <time>2021-03-08T13:00:56Z</time>
      </trkpt>
      <trkpt lat="43.53738" lon="5.03758">
        <ele>13.9</ele>
        <time>2021-03-08T13:01:22Z</time>
      </trkpt>
      <trkpt lat="43.5375" lon="5.03733">
        <ele>12.5</ele>
        <time>2021-03-08T13:01:46Z</time>
      </trkpt>
      <trkpt lat="43.53745" lon="5.03705">
        <ele>10</ele>
        <time>2021-03-08T13:02:06Z</time>
      </trkpt>
      <trkpt lat="43.53737" lon="5.03677">
        <ele>7.4</ele>
        <time>2021-03-08T13:02:25Z</time>
      </trkpt>
      <trkpt lat="43.53729" lon="5.0365">
        <ele>6.2</ele>
        <time>2021-03-08T13:02:42Z</time>
      </trkpt>
      <trkpt lat="43.53721" lon="5.03621">
        <ele>6</ele>
        <time>2021-03-08T13:03:00Z</time>
      </trkpt>
      <trkpt lat="43.53714" lon="5.03592">
        <ele>5.7</ele>
        <time>2021-03-08T13:03:19Z</time>
      </trkpt>
      <trkpt lat="43.53706" lon="5.03564">
        <ele>5.4</ele>
        <time>2021-03-08T13:03:38Z</time>
      </trkpt>
      <trkpt lat="43.537" lon="5.03534">
        <ele>5.2</ele>
        <time>2021-03-08T13:03:56Z</time>
      </trkpt>
      <trkpt lat="43.53692" lon="5.03506">
        <ele>4.9</ele>
        <time>2021-03-08T13:04:14Z</time>
      </trkpt>
      <trkpt lat="43.53684" lon="5.03477">
        <ele>4.5</ele>
        <time>2021-03-08T13:04:34Z</time>
      </trkpt>
      <trkpt lat="43.53675" lon="5.03451">
        <ele>4.1</ele>
        <time>2021-03-08T13:05:28Z</time>
      </trkpt>
      <trkpt lat="43.53658" lon="5.03432">
        <ele>3.9</ele>
        <time>2021-03-08T13:05:51Z</time>
      </trkpt>
      <trkpt lat="43.53642" lon="5.03411">
        <ele>3.6</ele>
        <time>2021-03-08T13:06:11Z</time>
      </trkpt>
      <trkpt lat="43.53631" lon="5.03386">
        <ele>3</ele>
        <time>2021-03-08T13:06:31Z</time>
      </trkpt>
      <trkpt lat="43.53613" lon="5.03373">
        <ele>2.7</ele>
        <time>2021-03-08T13:07:25Z</time>
      </trkpt>
      <trkpt lat="43.53605" lon="5.03359">
        <ele>2.4</ele>
        <time>2021-03-08T13:08:33Z</time>
      </trkpt>
      <trkpt lat="43.53607" lon="5.03352">
        <ele>2.3</ele>
        <time>2021-03-08T13:10:16Z</time>
      </trkpt>
      <trkpt lat="43.53599" lon="5.03374">
        <ele>2.6</ele>
        <time>2021-03-08T13:11:15Z</time>
      </trkpt>
      <trkpt lat="43.53584" lon="5.03393">
        <ele>2.7</ele>
        <time>2021-03-08T13:11:39Z</time>
      </trkpt>
      <trkpt lat="43.53565" lon="5.03409">
        <ele>3</ele>
        <time>2021-03-08T13:12:01Z</time>
      </trkpt>
      <trkpt lat="43.53546" lon="5.03424">
        <ele>3</ele>
        <time>2021-03-08T13:12:22Z</time>
      </trkpt>
      <trkpt lat="43.53528" lon="5.03443">
        <ele>2.7</ele>
        <time>2021-03-08T13:12:44Z</time>
      </trkpt>
      <trkpt lat="43.53513" lon="5.03463">
        <ele>2.1</ele>
        <time>2021-03-08T13:13:04Z</time>
      </trkpt>
      <trkpt lat="43.53495" lon="5.03481">
        <ele>1</ele>
        <time>2021-03-08T13:13:27Z</time>
      </trkpt>
      <trkpt lat="43.53477" lon="5.03499">
        <ele>1</ele>
        <time>2021-03-08T13:13:49Z</time>
      </trkpt>
      <trkpt lat="43.53477" lon="5.03527">
        <ele>1.3</ele>
        <time>2021-03-08T13:14:20Z</time>
      </trkpt>
      <trkpt lat="43.5349" lon="5.0355">
        <ele>1.6</ele>
        <time>2021-03-08T13:14:39Z</time>
      </trkpt>
      <trkpt lat="43.53503" lon="5.03573">
        <ele>2</ele>
        <time>2021-03-08T13:14:59Z</time>
      </trkpt>
      <trkpt lat="43.5349" lon="5.03596">
        <ele>2</ele>
        <time>2021-03-08T13:15:17Z</time>
      </trkpt>
      <trkpt lat="43.53475" lon="5.03617">
        <ele>2</ele>
        <time>2021-03-08T13:15:36Z</time>
      </trkpt>
      <trkpt lat="43.5346" lon="5.0364">
        <ele>2</ele>
        <time>2021-03-08T13:15:55Z</time>
      </trkpt>
      <trkpt lat="43.53439" lon="5.03649">
        <ele>2</ele>
        <time>2021-03-08T13:16:13Z</time>
      </trkpt>
      <trkpt lat="43.53419" lon="5.03662">
        <ele>2</ele>
        <time>2021-03-08T13:16:34Z</time>
      </trkpt>
      <trkpt lat="43.534" lon="5.03663">
        <ele>2</ele>
        <time>2021-03-08T13:16:56Z</time>
      </trkpt>
      <trkpt lat="43.53382" lon="5.03647">
        <ele>2</ele>
        <time>2021-03-08T13:17:16Z</time>
      </trkpt>
      <trkpt lat="43.53366" lon="5.03665">
        <ele>2</ele>
        <time>2021-03-08T13:17:43Z</time>
      </trkpt>
      <trkpt lat="43.53355" lon="5.03684">
        <ele>2</ele>
        <time>2021-03-08T13:18:45Z</time>
      </trkpt>
      <trkpt lat="43.53334" lon="5.03693">
        <ele>2</ele>
        <time>2021-03-08T13:19:11Z</time>
      </trkpt>
      <trkpt lat="43.53317" lon="5.03709">
        <ele>1</ele>
        <time>2021-03-08T13:19:49Z</time>
      </trkpt>
      <trkpt lat="43.53304" lon="5.03732">
        <ele>1</ele>
        <time>2021-03-08T13:20:18Z</time>
      </trkpt>
      <trkpt lat="43.53286" lon="5.03747">
        <ele>1</ele>
        <time>2021-03-08T13:20:44Z</time>
      </trkpt>
      <trkpt lat="43.53268" lon="5.03763">
        <ele>1</ele>
        <time>2021-03-08T13:21:06Z</time>
      </trkpt>
      <trkpt lat="43.53248" lon="5.03775">
        <ele>1</ele>
        <time>2021-03-08T13:21:37Z</time>
      </trkpt>
      <trkpt lat="43.53233" lon="5.03795">
        <ele>1</ele>
        <time>2021-03-08T13:22:07Z</time>
      </trkpt>
      <trkpt lat="43.53217" lon="5.03817">
        <ele>1</ele>
        <time>2021-03-08T13:22:27Z</time>
      </trkpt>
      <trkpt lat="43.53202" lon="5.03839">
        <ele>1</ele>
        <time>2021-03-08T13:22:48Z</time>
      </trkpt>
      <trkpt lat="43.5319" lon="5.0386">
        <ele>1</ele>
        <time>2021-03-08T13:23:14Z</time>
      </trkpt>
      <trkpt lat="43.53172" lon="5.03871">
        <ele>1</ele>
        <time>2021-03-08T13:23:48Z</time>
      </trkpt>
      <trkpt lat="43.53155" lon="5.03891">
        <ele>1</ele>
        <time>2021-03-08T13:24:07Z</time>
      </trkpt>
      <trkpt lat="43.5314" lon="5.03914">
        <ele>1</ele>
        <time>2021-03-08T13:24:28Z</time>
      </trkpt>
      <trkpt lat="43.53122" lon="5.03932">
        <ele>1.1</ele>
        <time>2021-03-08T13:24:49Z</time>
      </trkpt>
      <trkpt lat="43.5311" lon="5.03955">
        <ele>1.1</ele>
        <time>2021-03-08T13:25:18Z</time>
      </trkpt>
      <trkpt lat="43.53097" lon="5.03979">
        <ele>1.1</ele>
        <time>2021-03-08T13:25:44Z</time>
      </trkpt>
      <trkpt lat="43.53078" lon="5.03991">
        <ele>1</ele>
        <time>2021-03-08T13:27:00Z</time>
      </trkpt>
      <trkpt lat="43.53065" lon="5.04013">
        <ele>1.2</ele>
        <time>2021-03-08T13:27:32Z</time>
      </trkpt>
      <trkpt lat="43.53051" lon="5.04034">
        <ele>1.4</ele>
        <time>2021-03-08T13:27:59Z</time>
      </trkpt>
      <trkpt lat="43.53034" lon="5.04054">
        <ele>1.6</ele>
        <time>2021-03-08T13:28:16Z</time>
      </trkpt>
      <trkpt lat="43.53019" lon="5.04073">
        <ele>1.9</ele>
        <time>2021-03-08T13:28:35Z</time>
      </trkpt>
      <trkpt lat="43.53008" lon="5.04095">
        <ele>2</ele>
        <time>2021-03-08T13:29:13Z</time>
      </trkpt>
      <trkpt lat="43.53004" lon="5.04115">
        <ele>2</ele>
        <time>2021-03-08T13:30:08Z</time>
      </trkpt>
      <trkpt lat="43.52985" lon="5.0413">
        <ele>1</ele>
        <time>2021-03-08T13:30:34Z</time>
      </trkpt>
      <trkpt lat="43.52968" lon="5.04148">
        <ele>1</ele>
        <time>2021-03-08T13:30:55Z</time>
      </trkpt>
      <trkpt lat="43.52951" lon="5.04167">
        <ele>1</ele>
        <time>2021-03-08T13:31:17Z</time>
      </trkpt>
      <trkpt lat="43.52935" lon="5.04187">
        <ele>1</ele>
        <time>2021-03-08T13:31:53Z</time>
      </trkpt>
      <trkpt lat="43.52919" lon="5.04206">
        <ele>1</ele>
        <time>2021-03-08T13:32:27Z</time>
      </trkpt>
      <trkpt lat="43.52903" lon="5.04224">
        <ele>1</ele>
        <time>2021-03-08T13:32:49Z</time>
      </trkpt>
      <trkpt lat="43.52884" lon="5.04237">
        <ele>1</ele>
        <time>2021-03-08T13:33:07Z</time>
      </trkpt>
      <trkpt lat="43.52865" lon="5.04251">
        <ele>1</ele>
        <time>2021-03-08T13:33:27Z</time>
      </trkpt>
      <trkpt lat="43.52848" lon="5.0427">
        <ele>1</ele>
        <time>2021-03-08T13:33:48Z</time>
      </trkpt>
      <trkpt lat="43.5283" lon="5.04287">
        <ele>1</ele>
        <time>2021-03-08T13:34:10Z</time>
      </trkpt>
      <trkpt lat="43.52813" lon="5.04301">
        <ele>1</ele>
        <time>2021-03-08T13:34:37Z</time>
      </trkpt>
      <trkpt lat="43.52801" lon="5.04323">
        <ele>1</ele>
        <time>2021-03-08T13:35:26Z</time>
      </trkpt>
      <trkpt lat="43.52782" lon="5.04332">
        <ele>1</ele>
        <time>2021-03-08T13:36:02Z</time>
      </trkpt>
      <trkpt lat="43.52763" lon="5.04346">
        <ele>1</ele>
        <time>2021-03-08T13:36:32Z</time>
      </trkpt>
      <trkpt lat="43.52743" lon="5.04359">
        <ele>1</ele>
        <time>2021-03-08T13:36:58Z</time>
      </trkpt>
      <trkpt lat="43.52721" lon="5.04352">
        <ele>1</ele>
        <time>2021-03-08T13:37:24Z</time>
      </trkpt>
      <trkpt lat="43.52701" lon="5.04346">
        <ele>1</ele>
        <time>2021-03-08T13:37:48Z</time>
      </trkpt>
      <trkpt lat="43.5268" lon="5.04346">
        <ele>1</ele>
        <time>2021-03-08T13:38:10Z</time>
      </trkpt>
      <trkpt lat="43.5266" lon="5.04356">
        <ele>1</ele>
        <time>2021-03-08T13:38:57Z</time>
      </trkpt>
      <trkpt lat="43.5264" lon="5.04365">
        <ele>1</ele>
        <time>2021-03-08T13:39:27Z</time>
      </trkpt>
      <trkpt lat="43.52618" lon="5.0436">
        <ele>1</ele>
        <time>2021-03-08T13:39:57Z</time>
      </trkpt>
      <trkpt lat="43.52599" lon="5.04348">
        <ele>1</ele>
        <time>2021-03-08T13:40:16Z</time>
      </trkpt>
      <trkpt lat="43.52584" lon="5.0434">
        <ele>1</ele>
        <time>2021-03-08T13:40:54Z</time>
      </trkpt>
      <trkpt lat="43.52571" lon="5.04351">
        <ele>1</ele>
        <time>2021-03-08T13:43:21Z</time>
      </trkpt>
      <trkpt lat="43.52556" lon="5.04363">
        <ele>1</ele>
        <time>2021-03-08T13:45:06Z</time>
      </trkpt>
      <trkpt lat="43.52537" lon="5.04377">
        <ele>1</ele>
        <time>2021-03-08T13:45:32Z</time>
      </trkpt>
      <trkpt lat="43.52525" lon="5.04401">
        <ele>1</ele>
        <time>2021-03-08T13:45:58Z</time>
      </trkpt>
      <trkpt lat="43.52517" lon="5.04425">
        <ele>1</ele>
        <time>2021-03-08T13:46:59Z</time>
      </trkpt>
      <trkpt lat="43.5251" lon="5.04454">
        <ele>1</ele>
        <time>2021-03-08T13:47:23Z</time>
      </trkpt>
      <trkpt lat="43.52498" lon="5.04478">
        <ele>1</ele>
        <time>2021-03-08T13:47:45Z</time>
      </trkpt>
      <trkpt lat="43.52484" lon="5.04503">
        <ele>1</ele>
        <time>2021-03-08T13:48:05Z</time>
      </trkpt>
      <trkpt lat="43.52467" lon="5.04522">
        <ele>1</ele>
        <time>2021-03-08T13:48:25Z</time>
      </trkpt>
      <trkpt lat="43.5245" lon="5.04538">
        <ele>1</ele>
        <time>2021-03-08T13:48:54Z</time>
      </trkpt>
      <trkpt lat="43.5244" lon="5.0453">
        <ele>1</ele>
        <time>2021-03-08T13:49:39Z</time>
      </trkpt>
      <trkpt lat="43.5242" lon="5.04538">
        <ele>1</ele>
        <time>2021-03-08T13:49:59Z</time>
      </trkpt>
      <trkpt lat="43.52407" lon="5.04559">
        <time>2021-03-08T13:50:19Z</time>
      </trkpt>
      <trkpt lat="43.52393" lon="5.04583">
        <time>2021-03-08T13:50:38Z</time>
      </trkpt>
      <trkpt lat="43.52374" lon="5.04597">
        <time>2021-03-08T13:50:57Z</time>
      </trkpt>
      <trkpt lat="43.52353" lon="5.04597">
        <time>2021-03-08T13:51:15Z</time>
      </trkpt>
      <trkpt lat="43.5233" lon="5.04591">
        <time>2021-03-08T13:51:33Z</time>
      </trkpt>
      <trkpt lat="43.5231" lon="5.04581">
        <ele>1</ele>
        <time>2021-03-08T13:51:50Z</time>
      </trkpt>
      <trkpt lat="43.5229" lon="5.0457">
        <time>2021-03-08T13:52:08Z</time>
      </trkpt>
      <trkpt lat="43.5227" lon="5.04555">
        <ele>1</ele>
        <time>2021-03-08T13:52:30Z</time>
      </trkpt>
      <trkpt lat="43.52249" lon="5.04544">
        <ele>1</ele>
        <time>2021-03-08T13:52:53Z</time>
      </trkpt>
      <trkpt lat="43.5223" lon="5.04528">
        <ele>1</ele>
        <time>2021-03-08T13:53:14Z</time>
      </trkpt>
      <trkpt lat="43.5221" lon="5.04533">
        <ele>1</ele>
        <time>2021-03-08T13:53:33Z</time>
      </trkpt>
      <trkpt lat="43.52193" lon="5.04549">
        <ele>1</ele>
        <time>2021-03-08T13:54:08Z</time>
      </trkpt>
      <trkpt lat="43.52184" lon="5.04573">
        <ele>1</ele>
        <time>2021-03-08T13:55:47Z</time>
      </trkpt>
      <trkpt lat="43.52166" lon="5.04588">
        <time>2021-03-08T13:56:16Z</time>
      </trkpt>
      <trkpt lat="43.52153" lon="5.04609">
        <time>2021-03-08T13:56:44Z</time>
      </trkpt>
      <trkpt lat="43.52158" lon="5.04636">
        <time>2021-03-08T13:57:40Z</time>
      </trkpt>
      <trkpt lat="43.52166" lon="5.04664">
        <time>2021-03-08T13:58:10Z</time>
      </trkpt>
      <trkpt lat="43.52173" lon="5.04693">
        <ele>1</ele>
        <time>2021-03-08T13:58:39Z</time>
      </trkpt>
      <trkpt lat="43.52182" lon="5.04721">
        <ele>1</ele>
        <time>2021-03-08T13:59:06Z</time>
      </trkpt>
      <trkpt lat="43.52188" lon="5.04751">
        <ele>1</ele>
        <time>2021-03-08T13:59:30Z</time>
      </trkpt>
      <trkpt lat="43.52194" lon="5.04781">
        <ele>1.4</ele>
        <time>2021-03-08T13:59:54Z</time>
      </trkpt>
      <trkpt lat="43.52201" lon="5.04809">
        <ele>1.7</ele>
        <time>2021-03-08T14:00:17Z</time>
      </trkpt>
      <trkpt lat="43.52203" lon="5.04839">
        <ele>2</ele>
        <time>2021-03-08T14:00:44Z</time>
      </trkpt>
      <trkpt lat="43.52207" lon="5.04868">
        <ele>2</ele>
        <time>2021-03-08T14:01:26Z</time>
      </trkpt>
      <trkpt lat="43.5221" lon="5.04879">
        <ele>2</ele>
        <time>2021-03-08T14:02:32Z</time>
      </trkpt>
      <trkpt lat="43.52217" lon="5.04853">
        <ele>2</ele>
        <time>2021-03-08T14:03:12Z</time>
      </trkpt>
      <trkpt lat="43.52237" lon="5.04848">
        <ele>2</ele>
        <time>2021-03-08T14:03:33Z</time>
      </trkpt>
      <trkpt lat="43.52256" lon="5.04836">
        <ele>2</ele>
        <time>2021-03-08T14:03:53Z</time>
      </trkpt>
      <trkpt lat="43.52272" lon="5.04816">
        <ele>1.8</ele>
        <time>2021-03-08T14:04:14Z</time>
      </trkpt>
      <trkpt lat="43.52285" lon="5.048">
        <ele>1.6</ele>
        <time>2021-03-08T14:05:02Z</time>
      </trkpt>
      <trkpt lat="43.52303" lon="5.04812">
        <ele>1.7</ele>
        <time>2021-03-08T14:05:31Z</time>
      </trkpt>
      <trkpt lat="43.52323" lon="5.04814">
        <ele>1.8</ele>
        <time>2021-03-08T14:06:02Z</time>
      </trkpt>
      <trkpt lat="43.52344" lon="5.04805">
        <ele>1</ele>
        <time>2021-03-08T14:06:23Z</time>
      </trkpt>
      <trkpt lat="43.52365" lon="5.04801">
        <ele>1.1</ele>
        <time>2021-03-08T14:06:43Z</time>
      </trkpt>
      <trkpt lat="43.52381" lon="5.04813">
        <ele>1.6</ele>
        <time>2021-03-08T14:07:10Z</time>
      </trkpt>
      <trkpt lat="43.52381" lon="5.04843">
        <ele>1</ele>
        <time>2021-03-08T14:07:30Z</time>
      </trkpt>
      <trkpt lat="43.52382" lon="5.04872">
        <ele>1</ele>
        <time>2021-03-08T14:07:53Z</time>
      </trkpt>
      <trkpt lat="43.52371" lon="5.04898">
        <ele>1</ele>
        <time>2021-03-08T14:08:13Z</time>
      </trkpt>
      <trkpt lat="43.52355" lon="5.0492">
        <ele>1</ele>
        <time>2021-03-08T14:08:33Z</time>
      </trkpt>
      <trkpt lat="43.52338" lon="5.04933">
        <ele>1</ele>
        <time>2021-03-08T14:08:52Z</time>
      </trkpt>
      <trkpt lat="43.52317" lon="5.04926">
        <ele>1.2</ele>
        <time>2021-03-08T14:09:11Z</time>
      </trkpt>
      <trkpt lat="43.52296" lon="5.04918">
        <ele>1.4</ele>
        <time>2021-03-08T14:09:32Z</time>
      </trkpt>
      <trkpt lat="43.52274" lon="5.04918">
        <ele>1.7</ele>
        <time>2021-03-08T14:09:52Z</time>
      </trkpt>
      <trkpt lat="43.52253" lon="5.0492">
        <ele>1.9</ele>
        <time>2021-03-08T14:10:12Z</time>
      </trkpt>
      <trkpt lat="43.52239" lon="5.04933">
        <ele>1.8</ele>
        <time>2021-03-08T14:10:45Z</time>
      </trkpt>
      <trkpt lat="43.52222" lon="5.04952">
        <ele>1.6</ele>
        <time>2021-03-08T14:11:17Z</time>
      </trkpt>
      <trkpt lat="43.52205" lon="5.0497">
        <ele>1.4</ele>
        <time>2021-03-08T14:11:39Z</time>
      </trkpt>
      <trkpt lat="43.52195" lon="5.04989">
        <ele>1.1</ele>
        <time>2021-03-08T14:12:39Z</time>
      </trkpt>
      <trkpt lat="43.52179" lon="5.05002">
        <ele>1</ele>
        <time>2021-03-08T14:13:18Z</time>
      </trkpt>
      <trkpt lat="43.52162" lon="5.05019">
        <ele>1</ele>
        <time>2021-03-08T14:13:38Z</time>
      </trkpt>
      <trkpt lat="43.52144" lon="5.05036">
        <ele>1</ele>
        <time>2021-03-08T14:14:07Z</time>
      </trkpt>
      <trkpt lat="43.52127" lon="5.05057">
        <ele>1.1</ele>
        <time>2021-03-08T14:14:31Z</time>
      </trkpt>
      <trkpt lat="43.5211" lon="5.05075">
        <ele>1.7</ele>
        <time>2021-03-08T14:14:55Z</time>
      </trkpt>
      <trkpt lat="43.52092" lon="5.05094">
        <ele>1.6</ele>
        <time>2021-03-08T14:15:12Z</time>
      </trkpt>
      <trkpt lat="43.52075" lon="5.05113">
        <ele>1.1</ele>
        <time>2021-03-08T14:15:31Z</time>
      </trkpt>
      <trkpt lat="43.52058" lon="5.05132">
        <ele>1.8</ele>
        <time>2021-03-08T14:15:56Z</time>
      </trkpt>
      <trkpt lat="43.52041" lon="5.05151">
        <ele>1.6</ele>
        <time>2021-03-08T14:16:16Z</time>
      </trkpt>
      <trkpt lat="43.52024" lon="5.05169">
        <ele>1</ele>
        <time>2021-03-08T14:16:34Z</time>
      </trkpt>
      <trkpt lat="43.52007" lon="5.0519">
        <ele>1</ele>
        <time>2021-03-08T14:16:55Z</time>
      </trkpt>
      <trkpt lat="43.5199" lon="5.05209">
        <ele>1</ele>
        <time>2021-03-08T14:17:12Z</time>
      </trkpt>
      <trkpt lat="43.51972" lon="5.05229">
        <ele>1</ele>
        <time>2021-03-08T14:17:29Z</time>
      </trkpt>
      <trkpt lat="43.51956" lon="5.05248">
        <ele>1</ele>
        <time>2021-03-08T14:17:51Z</time>
      </trkpt>
      <trkpt lat="43.51942" lon="5.05272">
        <ele>1</ele>
        <time>2021-03-08T14:18:08Z</time>
      </trkpt>
      <trkpt lat="43.51928" lon="5.05296">
        <ele>1</ele>
        <time>2021-03-08T14:18:24Z</time>
      </trkpt>
      <trkpt lat="43.51916" lon="5.05321">
        <ele>1</ele>
        <time>2021-03-08T14:18:45Z</time>
      </trkpt>
      <trkpt lat="43.51904" lon="5.05347">
        <ele>1</ele>
        <time>2021-03-08T14:19:05Z</time>
      </trkpt>
      <trkpt lat="43.51894" lon="5.05369">
        <ele>1</ele>
        <time>2021-03-08T14:19:50Z</time>
      </trkpt>
      <trkpt lat="43.51896" lon="5.05369">
        <ele>1</ele>
        <time>2021-03-08T14:22:23Z</time>
      </trkpt>
      <trkpt lat="43.51899" lon="5.05363">
        <ele>1</ele>
        <time>2021-03-08T14:29:23Z</time>
      </trkpt>
      <trkpt lat="43.51908" lon="5.05336">
        <ele>1</ele>
        <time>2021-03-08T14:29:58Z</time>
      </trkpt>
      <trkpt lat="43.5192" lon="5.05312">
        <ele>1</ele>
        <time>2021-03-08T14:30:25Z</time>
      </trkpt>
      <trkpt lat="43.51931" lon="5.05286">
        <ele>1</ele>
        <time>2021-03-08T14:30:49Z</time>
      </trkpt>
      <trkpt lat="43.51945" lon="5.05263">
        <ele>1</ele>
        <time>2021-03-08T14:31:11Z</time>
      </trkpt>
      <trkpt lat="43.51961" lon="5.05241">
        <ele>1</ele>
        <time>2021-03-08T14:31:32Z</time>
      </trkpt>
      <trkpt lat="43.51978" lon="5.05222">
        <ele>1</ele>
        <time>2021-03-08T14:31:52Z</time>
      </trkpt>
      <trkpt lat="43.51995" lon="5.05202">
        <ele>1</ele>
        <time>2021-03-08T14:32:13Z</time>
      </trkpt>
      <trkpt lat="43.52012" lon="5.05183">
        <ele>1</ele>
        <time>2021-03-08T14:32:35Z</time>
      </trkpt>
      <trkpt lat="43.5203" lon="5.05163">
        <ele>1.1</ele>
        <time>2021-03-08T14:32:56Z</time>
      </trkpt>
      <trkpt lat="43.52047" lon="5.05144">
        <ele>1.8</ele>
        <time>2021-03-08T14:33:15Z</time>
      </trkpt>
      <trkpt lat="43.52064" lon="5.05125">
        <ele>1.5</ele>
        <time>2021-03-08T14:33:36Z</time>
      </trkpt>
      <trkpt lat="43.52082" lon="5.05107">
        <ele>1</ele>
        <time>2021-03-08T14:33:56Z</time>
      </trkpt>
      <trkpt lat="43.52099" lon="5.05087">
        <ele>1.9</ele>
        <time>2021-03-08T14:34:18Z</time>
      </trkpt>
      <trkpt lat="43.52116" lon="5.05068">
        <ele>1.4</ele>
        <time>2021-03-08T14:34:39Z</time>
      </trkpt>
      <trkpt lat="43.52133" lon="5.05049">
        <ele>1</ele>
        <time>2021-03-08T14:35:00Z</time>
      </trkpt>
      <trkpt lat="43.5215" lon="5.0503">
        <ele>1</ele>
        <time>2021-03-08T14:35:20Z</time>
      </trkpt>
      <trkpt lat="43.52167" lon="5.05012">
        <ele>1</ele>
        <time>2021-03-08T14:35:40Z</time>
      </trkpt>
      <trkpt lat="43.52184" lon="5.04993">
        <ele>1.1</ele>
        <time>2021-03-08T14:36:01Z</time>
      </trkpt>
      <trkpt lat="43.52202" lon="5.04973">
        <ele>1.3</ele>
        <time>2021-03-08T14:36:23Z</time>
      </trkpt>
      <trkpt lat="43.52219" lon="5.04954">
        <ele>1.5</ele>
        <time>2021-03-08T14:36:42Z</time>
      </trkpt>
      <trkpt lat="43.52236" lon="5.04935">
        <ele>1.8</ele>
        <time>2021-03-08T14:37:02Z</time>
      </trkpt>
      <trkpt lat="43.52254" lon="5.04917">
        <ele>1.9</ele>
        <time>2021-03-08T14:37:22Z</time>
      </trkpt>
      <trkpt lat="43.52276" lon="5.04916">
        <ele>1.7</ele>
        <time>2021-03-08T14:37:41Z</time>
      </trkpt>
      <trkpt lat="43.52297" lon="5.04915">
        <ele>1.4</ele>
        <time>2021-03-08T14:38:00Z</time>
      </trkpt>
      <trkpt lat="43.52318" lon="5.04922">
        <ele>1.2</ele>
        <time>2021-03-08T14:38:19Z</time>
      </trkpt>
      <trkpt lat="43.52339" lon="5.04931">
        <ele>1</ele>
        <time>2021-03-08T14:38:39Z</time>
      </trkpt>
      <trkpt lat="43.52357" lon="5.04916">
        <ele>1</ele>
        <time>2021-03-08T14:39:00Z</time>
      </trkpt>
      <trkpt lat="43.52371" lon="5.04893">
        <ele>1</ele>
        <time>2021-03-08T14:39:21Z</time>
      </trkpt>
      <trkpt lat="43.52382" lon="5.04866">
        <ele>1</ele>
        <time>2021-03-08T14:39:42Z</time>
      </trkpt>
      <trkpt lat="43.52383" lon="5.04836">
        <ele>1</ele>
        <time>2021-03-08T14:40:03Z</time>
      </trkpt>
      <trkpt lat="43.524" lon="5.04823">
        <ele>1.2</ele>
        <time>2021-03-08T14:40:25Z</time>
      </trkpt>
      <trkpt lat="43.52423" lon="5.04821">
        <ele>1</ele>
        <time>2021-03-08T14:40:45Z</time>
      </trkpt>
      <trkpt lat="43.52445" lon="5.0482">
        <ele>1</ele>
        <time>2021-03-08T14:41:08Z</time>
      </trkpt>
      <trkpt lat="43.52468" lon="5.04818">
        <ele>1</ele>
        <time>2021-03-08T14:41:31Z</time>
      </trkpt>
      <trkpt lat="43.5249" lon="5.04817">
        <ele>1</ele>
        <time>2021-03-08T14:41:53Z</time>
      </trkpt>
      <trkpt lat="43.52512" lon="5.04813">
        <ele>1</ele>
        <time>2021-03-08T14:42:14Z</time>
      </trkpt>
      <trkpt lat="43.52533" lon="5.0481">
        <ele>1</ele>
        <time>2021-03-08T14:42:36Z</time>
      </trkpt>
      <trkpt lat="43.52555" lon="5.04811">
        <ele>1</ele>
        <time>2021-03-08T14:42:57Z</time>
      </trkpt>
      <trkpt lat="43.52576" lon="5.04813">
        <ele>1</ele>
        <time>2021-03-08T14:43:18Z</time>
      </trkpt>
      <trkpt lat="43.52598" lon="5.04812">
        <ele>1.5</ele>
        <time>2021-03-08T14:43:40Z</time>
      </trkpt>
      <trkpt lat="43.52621" lon="5.04809">
        <ele>1.6</ele>
        <time>2021-03-08T14:44:01Z</time>
      </trkpt>
      <trkpt lat="43.52643" lon="5.04805">
        <ele>1.7</ele>
        <time>2021-03-08T14:44:21Z</time>
      </trkpt>
      <trkpt lat="43.52664" lon="5.04798">
        <ele>1.8</ele>
        <time>2021-03-08T14:44:44Z</time>
      </trkpt>
      <trkpt lat="43.52686" lon="5.04797">
        <ele>1.8</ele>
        <time>2021-03-08T14:45:05Z</time>
      </trkpt>
      <trkpt lat="43.52707" lon="5.04791">
        <ele>1.8</ele>
        <time>2021-03-08T14:45:27Z</time>
      </trkpt>
      <trkpt lat="43.52724" lon="5.04772">
        <ele>2</ele>
        <time>2021-03-08T14:45:51Z</time>
      </trkpt>
      <trkpt lat="43.52743" lon="5.04755">
        <ele>2</ele>
        <time>2021-03-08T14:46:12Z</time>
      </trkpt>
      <trkpt lat="43.52759" lon="5.04735">
        <ele>2.2</ele>
        <time>2021-03-08T14:46:35Z</time>
      </trkpt>
      <trkpt lat="43.52777" lon="5.04716">
        <ele>2.3</ele>
        <time>2021-03-08T14:46:58Z</time>
      </trkpt>
      <trkpt lat="43.52796" lon="5.04699">
        <ele>2.3</ele>
        <time>2021-03-08T14:47:17Z</time>
      </trkpt>
      <trkpt lat="43.52813" lon="5.04681">
        <ele>2.2</ele>
        <time>2021-03-08T14:47:38Z</time>
      </trkpt>
      <trkpt lat="43.52834" lon="5.04686">
        <ele>2</ele>
        <time>2021-03-08T14:47:58Z</time>
      </trkpt>
      <trkpt lat="43.52853" lon="5.04702">
        <ele>2.5</ele>
        <time>2021-03-08T14:48:17Z</time>
      </trkpt>
      <trkpt lat="43.52874" lon="5.04711">
        <ele>3</ele>
        <time>2021-03-08T14:48:38Z</time>
      </trkpt>
      <trkpt lat="43.52896" lon="5.04722">
        <ele>3.5</ele>
        <time>2021-03-08T14:48:57Z</time>
      </trkpt>
      <trkpt lat="43.52917" lon="5.04732">
        <ele>4</ele>
        <time>2021-03-08T14:49:15Z</time>
      </trkpt>
      <trkpt lat="43.52938" lon="5.04737">
        <ele>4.1</ele>
        <time>2021-03-08T14:49:37Z</time>
      </trkpt>
      <trkpt lat="43.5296" lon="5.04744">
        <ele>4.1</ele>
        <time>2021-03-08T14:49:55Z</time>
      </trkpt>
      <trkpt lat="43.52982" lon="5.04739">
        <ele>4.2</ele>
        <time>2021-03-08T14:50:15Z</time>
      </trkpt>
      <trkpt lat="43.53004" lon="5.04732">
        <ele>4.4</ele>
        <time>2021-03-08T14:50:37Z</time>
      </trkpt>
      <trkpt lat="43.53024" lon="5.0472">
        <ele>4.8</ele>
        <time>2021-03-08T14:50:57Z</time>
      </trkpt>
      <trkpt lat="43.53041" lon="5.04701">
        <ele>5.5</ele>
        <time>2021-03-08T14:51:17Z</time>
      </trkpt>
      <trkpt lat="43.53057" lon="5.04679">
        <ele>6.3</ele>
        <time>2021-03-08T14:51:37Z</time>
      </trkpt>
      <trkpt lat="43.53077" lon="5.04667">
        <ele>6.9</ele>
        <time>2021-03-08T14:51:59Z</time>
      </trkpt>
      <trkpt lat="43.53099" lon="5.04665">
        <ele>7.2</ele>
        <time>2021-03-08T14:52:20Z</time>
      </trkpt>
      <trkpt lat="43.5312" lon="5.0467">
        <ele>7.4</ele>
        <time>2021-03-08T14:52:38Z</time>
      </trkpt>
      <trkpt lat="43.53142" lon="5.04673">
        <ele>7.6</ele>
        <time>2021-03-08T14:52:57Z</time>
      </trkpt>
      <trkpt lat="43.53164" lon="5.04674">
        <ele>7.9</ele>
        <time>2021-03-08T14:53:19Z</time>
      </trkpt>
      <trkpt lat="43.53186" lon="5.04673">
        <ele>7.5</ele>
        <time>2021-03-08T14:53:50Z</time>
      </trkpt>
      <trkpt lat="43.53209" lon="5.04671">
        <ele>7</ele>
        <time>2021-03-08T14:54:10Z</time>
      </trkpt>
      <trkpt lat="43.53231" lon="5.04668">
        <ele>6.5</ele>
        <time>2021-03-08T14:54:31Z</time>
      </trkpt>
      <trkpt lat="43.53252" lon="5.04667">
        <ele>6</ele>
        <time>2021-03-08T14:54:50Z</time>
      </trkpt>
      <trkpt lat="43.53275" lon="5.04669">
        <ele>6.1</ele>
        <time>2021-03-08T14:55:09Z</time>
      </trkpt>
      <trkpt lat="43.53296" lon="5.0467">
        <ele>6.1</ele>
        <time>2021-03-08T14:55:30Z</time>
      </trkpt>
      <trkpt lat="43.53319" lon="5.04665">
        <ele>6.1</ele>
        <time>2021-03-08T14:55:48Z</time>
      </trkpt>
      <trkpt lat="43.5334" lon="5.04665">
        <ele>6.2</ele>
        <time>2021-03-08T14:56:07Z</time>
      </trkpt>
      <trkpt lat="43.53363" lon="5.04664">
        <ele>6.8</ele>
        <time>2021-03-08T14:56:30Z</time>
      </trkpt>
      <trkpt lat="43.53385" lon="5.04661">
        <ele>7.4</ele>
        <time>2021-03-08T14:56:50Z</time>
      </trkpt>
      <trkpt lat="43.53408" lon="5.04659">
        <ele>8</ele>
        <time>2021-03-08T14:57:12Z</time>
      </trkpt>
      <trkpt lat="43.53427" lon="5.04667">
        <ele>8.3</ele>
        <time>2021-03-08T14:57:31Z</time>
      </trkpt>
      <trkpt lat="43.53437" lon="5.04694">
        <ele>10</ele>
        <time>2021-03-08T14:57:54Z</time>
      </trkpt>
      <trkpt lat="43.53452" lon="5.04712">
        <ele>11.7</ele>
        <time>2021-03-08T14:58:36Z</time>
      </trkpt>
      <trkpt lat="43.53473" lon="5.04704">
        <ele>12.1</ele>
        <time>2021-03-08T14:59:10Z</time>
      </trkpt>
      <trkpt lat="43.53494" lon="5.04697">
        <ele>12.3</ele>
        <time>2021-03-08T14:59:43Z</time>
      </trkpt>
      <trkpt lat="43.53504" lon="5.04711">
        <ele>14.1</ele>
        <time>2021-03-08T15:00:23Z</time>
      </trkpt>
      <trkpt lat="43.53522" lon="5.04694">
        <ele>14.2</ele>
        <time>2021-03-08T15:01:00Z</time>
      </trkpt>
      <trkpt lat="43.53543" lon="5.04685">
        <ele>15.4</ele>
        <time>2021-03-08T15:01:30Z</time>
      </trkpt>
      <trkpt lat="43.53564" lon="5.04679">
        <ele>16.9</ele>
        <time>2021-03-08T15:01:49Z</time>
      </trkpt>
      <trkpt lat="43.53584" lon="5.04668">
        <ele>18.1</ele>
        <time>2021-03-08T15:02:06Z</time>
      </trkpt>
      <trkpt lat="43.53604" lon="5.04654">
        <ele>17.6</ele>
        <time>2021-03-08T15:02:24Z</time>
      </trkpt>
      <trkpt lat="43.53617" lon="5.04631">
        <ele>16.7</ele>
        <time>2021-03-08T15:02:41Z</time>
      </trkpt>
      <trkpt lat="43.53633" lon="5.0461">
        <ele>16.4</ele>
        <time>2021-03-08T15:02:58Z</time>
      </trkpt>
      <trkpt lat="43.53655" lon="5.04606">
        <ele>17.7</ele>
        <time>2021-03-08T15:03:16Z</time>
      </trkpt>
      <trkpt lat="43.53667" lon="5.04583">
        <ele>18</ele>
        <time>2021-03-08T15:03:35Z</time>
      </trkpt>
      <trkpt lat="43.53685" lon="5.04568">
        <ele>17.2</ele>
        <time>2021-03-08T15:04:00Z</time>
      </trkpt>
      <trkpt lat="43.53705" lon="5.04566">
        <ele>17.7</ele>
        <time>2021-03-08T15:04:16Z</time>
      </trkpt>
      <trkpt lat="43.53722" lon="5.04583">
        <ele>19.3</ele>
        <time>2021-03-08T15:04:34Z</time>
      </trkpt>
      <trkpt lat="43.5374" lon="5.0459">
        <ele>19.9</ele>
        <time>2021-03-08T15:04:56Z</time>
      </trkpt>
      <trkpt lat="43.53763" lon="5.04591">
        <ele>20.2</ele>
        <time>2021-03-08T15:05:18Z</time>
      </trkpt>
      <trkpt lat="43.53784" lon="5.04585">
        <ele>20</ele>
        <time>2021-03-08T15:05:34Z</time>
      </trkpt>
      <trkpt lat="43.53799" lon="5.04565">
        <ele>18.9</ele>
        <time>2021-03-08T15:05:51Z</time>
      </trkpt>
      <trkpt lat="43.53811" lon="5.04539">
        <ele>17.3</ele>
        <time>2021-03-08T15:06:11Z</time>
      </trkpt>
      <trkpt lat="43.53825" lon="5.04516">
        <ele>16</ele>
        <time>2021-03-08T15:06:29Z</time>
      </trkpt>
      <trkpt lat="43.53842" lon="5.04496">
        <ele>15.1</ele>
        <time>2021-03-08T15:06:52Z</time>
      </trkpt>
      <trkpt lat="43.53855" lon="5.04472">
        <ele>14.6</ele>
        <time>2021-03-08T15:07:11Z</time>
      </trkpt>
      <trkpt lat="43.53874" lon="5.04454">
        <ele>14.8</ele>
        <time>2021-03-08T15:07:30Z</time>
      </trkpt>
      <trkpt lat="43.53889" lon="5.04432">
        <ele>14.9</ele>
        <time>2021-03-08T15:07:50Z</time>
      </trkpt>
      <trkpt lat="43.53906" lon="5.04413">
        <ele>15.3</ele>
        <time>2021-03-08T15:08:09Z</time>
      </trkpt>
      <trkpt lat="43.53923" lon="5.04393">
        <ele>15.1</ele>
        <time>2021-03-08T15:08:28Z</time>
      </trkpt>
      <trkpt lat="43.5394" lon="5.04374">
        <ele>14.5</ele>
        <time>2021-03-08T15:08:48Z</time>
      </trkpt>
      <trkpt lat="43.53957" lon="5.04355">
        <ele>13.8</ele>
        <time>2021-03-08T15:09:05Z</time>
      </trkpt>
      <trkpt lat="43.53977" lon="5.0434">
        <ele>13.2</ele>
        <time>2021-03-08T15:09:23Z</time>
      </trkpt>
      <trkpt lat="43.53995" lon="5.04324">
        <ele>12.9</ele>
        <time>2021-03-08T15:09:40Z</time>
      </trkpt>
      <trkpt lat="43.54015" lon="5.04311">
        <ele>12.7</ele>
        <time>2021-03-08T15:09:58Z</time>
      </trkpt>
      <trkpt lat="43.54036" lon="5.04299">
        <ele>12.6</ele>
        <time>2021-03-08T15:10:14Z</time>
      </trkpt>
      <trkpt lat="43.54055" lon="5.04285">
        <ele>12.4</ele>
        <time>2021-03-08T15:10:31Z</time>
      </trkpt>
      <trkpt lat="43.54075" lon="5.04277">
        <ele>12.3</ele>
        <time>2021-03-08T15:10:51Z</time>
      </trkpt>
      <trkpt lat="43.54096" lon="5.04266">
        <ele>12.1</ele>
        <time>2021-03-08T15:11:10Z</time>
      </trkpt>
      <trkpt lat="43.54117" lon="5.04253">
        <ele>12</ele>
        <time>2021-03-08T15:11:27Z</time>
      </trkpt>
      <trkpt lat="43.54135" lon="5.04235">
        <ele>12.4</ele>
        <time>2021-03-08T15:11:45Z</time>
      </trkpt>
      <trkpt lat="43.54154" lon="5.0422">
        <ele>12.7</ele>
        <time>2021-03-08T15:12:02Z</time>
      </trkpt>
      <trkpt lat="43.54172" lon="5.04203">
        <ele>13.1</ele>
        <time>2021-03-08T15:12:20Z</time>
      </trkpt>
      <trkpt lat="43.54187" lon="5.0418">
        <ele>13.5</ele>
        <time>2021-03-08T15:12:37Z</time>
      </trkpt>
      <trkpt lat="43.542" lon="5.04155">
        <ele>13.6</ele>
        <time>2021-03-08T15:12:56Z</time>
      </trkpt>
      <trkpt lat="43.54214" lon="5.04136">
        <ele>13.4</ele>
        <time>2021-03-08T15:13:33Z</time>
      </trkpt>
      <trkpt lat="43.54217" lon="5.04132">
        <ele>13.4</ele>
        <time>2021-03-08T15:16:16Z</time>
      </trkpt>
    </trkseg>
  </trk>
</gpx>